sensor_id;sensor_type;location;lat;lon;timestamp;pressure;altitude;pressure_sealevel;temperature;humidity
29379;BME280;16362;47.202;15.258;2022-09-09T00:01:07;96070.66;;;12.82;100.00
29379;BME280;16362;47.202;15.258;2022-09-09T00:03:45;96069.41;;;12.77;100.00
29379;BME280;16362;47.202;15.258;2022-09-09T00:06:28;96074.94;;;12.76;100.00
29379;BME280;16362;47.202;15.258;2022-09-09T00:09:10;96082.28;;;12.67;100.00
29379;BME280;16362;47.202;15.258;2022-09-09T00:11:59;96078.31;;;12.63;100.00
29379;BME280;16362;47.202;15.258;2022-09-09T00:17:12;96090.09;;;12.47;100.00
29379;BME280;16362;47.202;15.258;2022-09-09T00:22:23;96102.75;;;12.53;100.00
29379;BME280;16362;47.202;15.258;2022-09-09T00:24:55;96096.09;;;12.49;100.00
29379;BME280;16362;47.202;15.258;2022-09-09T00:27:29;96102.09;;;12.51;100.00
29379;BME280;16362;47.202;15.258;2022-09-09T00:32:48;96105.72;;;12.43;100.00
29379;BME280;16362;47.202;15.258;2022-09-09T00:35:22;96099.25;;;12.38;100.00
29379;BME280;16362;47.202;15.258;2022-09-09T00:37:54;96104.00;;;12.36;100.00
29379;BME280;16362;47.202;15.258;2022-09-09T00:40:28;96100.47;;;12.35;100.00
29379;BME280;16362;47.202;15.258;2022-09-09T00:45:49;96098.84;;;12.34;100.00
29379;BME280;16362;47.202;15.258;2022-09-09T00:48:31;96098.38;;;12.30;100.00
29379;BME280;16362;47.202;15.258;2022-09-09T00:51:10;96105.75;;;12.28;100.00
29379;BME280;16362;47.202;15.258;2022-09-09T00:54:07;96115.00;;;12.26;100.00
29379;BME280;16362;47.202;15.258;2022-09-09T00:56:47;96118.22;;;12.21;100.00
29379;BME280;16362;47.202;15.258;2022-09-09T00:59:36;96103.19;;;12.20;100.00
29379;BME280;16362;47.202;15.258;2022-09-09T01:02:35;96110.59;;;12.18;100.00
29379;BME280;16362;47.202;15.258;2022-09-09T01:05:12;96108.94;;;12.17;100.00
29379;BME280;16362;47.202;15.258;2022-09-09T01:07:44;96110.97;;;12.15;100.00
29379;BME280;16362;47.202;15.258;2022-09-09T01:10:39;96113.00;;;12.13;100.00
29379;BME280;16362;47.202;15.258;2022-09-09T01:13:16;96105.97;;;12.12;100.00
29379;BME280;16362;47.202;15.258;2022-09-09T01:15:46;96109.44;;;12.06;100.00
29379;BME280;16362;47.202;15.258;2022-09-09T01:18:17;96111.44;;;12.04;100.00
29379;BME280;16362;47.202;15.258;2022-09-09T01:26:44;96103.16;;;11.99;100.00
29379;BME280;16362;47.202;15.258;2022-09-09T01:29:14;96108.69;;;11.97;100.00
29379;BME280;16362;47.202;15.258;2022-09-09T01:32:00;96094.69;;;11.95;100.00
29379;BME280;16362;47.202;15.258;2022-09-09T01:34:37;96099.84;;;11.96;100.00
29379;BME280;16362;47.202;15.258;2022-09-09T01:37:08;96104.63;;;11.86;100.00
29379;BME280;16362;47.202;15.258;2022-09-09T01:39:37;96109.88;;;11.79;100.00
29379;BME280;16362;47.202;15.258;2022-09-09T01:42:07;96109.88;;;11.79;100.00
29379;BME280;16362;47.202;15.258;2022-09-09T01:44:36;96105.72;;;11.77;100.00
29379;BME280;16362;47.202;15.258;2022-09-09T01:47:03;96110.16;;;11.70;100.00
29379;BME280;16362;47.202;15.258;2022-09-09T01:49:31;96114.13;;;11.74;100.00
29379;BME280;16362;47.202;15.258;2022-09-09T01:51:59;96110.25;;;11.76;100.00
29379;BME280;16362;47.202;15.258;2022-09-09T01:54:29;96112.38;;;11.81;100.00
29379;BME280;16362;47.202;15.258;2022-09-09T01:57:41;96110.91;;;11.78;100.00
29379;BME280;16362;47.202;15.258;2022-09-09T02:00:06;96109.25;;;11.77;100.00
29379;BME280;16362;47.202;15.258;2022-09-09T02:05:36;96110.63;;;11.73;100.00
29379;BME280;16362;47.202;15.258;2022-09-09T02:08:07;96116.81;;;11.74;100.00
29379;BME280;16362;47.202;15.258;2022-09-09T02:10:47;96116.19;;;11.72;100.00
29379;BME280;16362;47.202;15.258;2022-09-09T02:13:20;96123.53;;;11.70;100.00
29379;BME280;16362;47.202;15.258;2022-09-09T02:16:20;96118.19;;;11.70;100.00
29379;BME280;16362;47.202;15.258;2022-09-09T02:19:07;96103.81;;;11.71;100.00
29379;BME280;16362;47.202;15.258;2022-09-09T02:21:36;96104.00;;;11.69;100.00
29379;BME280;16362;47.202;15.258;2022-09-09T02:24:05;96087.78;;;11.71;100.00
29379;BME280;16362;47.202;15.258;2022-09-09T02:26:37;96094.13;;;11.70;100.00
29379;BME280;16362;47.202;15.258;2022-09-09T02:29:11;96106.03;;;11.67;100.00
29379;BME280;16362;47.202;15.258;2022-09-09T02:31:41;96107.03;;;11.66;100.00
29379;BME280;16362;47.202;15.258;2022-09-09T02:34:11;96107.59;;;11.61;100.00
29379;BME280;16362;47.202;15.258;2022-09-09T02:36:40;96106.94;;;11.59;100.00
29379;BME280;16362;47.202;15.258;2022-09-09T02:39:10;96108.88;;;11.51;100.00
29379;BME280;16362;47.202;15.258;2022-09-09T02:41:39;96115.03;;;11.51;100.00
29379;BME280;16362;47.202;15.258;2022-09-09T02:44:16;96116.72;;;11.52;100.00
29379;BME280;16362;47.202;15.258;2022-09-09T02:52:07;96122.97;;;11.59;100.00
29379;BME280;16362;47.202;15.258;2022-09-09T02:54:37;96126.94;;;11.63;100.00
29379;BME280;16362;47.202;15.258;2022-09-09T02:57:12;96129.44;;;11.50;100.00
29379;BME280;16362;47.202;15.258;2022-09-09T02:59:40;96122.63;;;11.48;100.00
29379;BME280;16362;47.202;15.258;2022-09-09T03:02:09;96124.25;;;11.49;100.00
29379;BME280;16362;47.202;15.258;2022-09-09T03:04:38;96120.75;;;11.48;100.00
29379;BME280;16362;47.202;15.258;2022-09-09T03:07:05;96115.03;;;11.51;100.00
29379;BME280;16362;47.202;15.258;2022-09-09T03:09:32;96114.50;;;11.56;100.00
29379;BME280;16362;47.202;15.258;2022-09-09T03:11:59;96109.34;;;11.54;100.00
29379;BME280;16362;47.202;15.258;2022-09-09T03:14:26;96115.13;;;11.58;100.00
29379;BME280;16362;47.202;15.258;2022-09-09T03:16:53;96109.78;;;11.58;100.00
29379;BME280;16362;47.202;15.258;2022-09-09T03:19:21;96103.63;;;11.57;100.00
29379;BME280;16362;47.202;15.258;2022-09-09T03:21:47;96114.13;;;11.59;100.00
29379;BME280;16362;47.202;15.258;2022-09-09T03:24:14;96108.78;;;11.59;100.00
29379;BME280;16362;47.202;15.258;2022-09-09T03:26:42;96104.63;;;11.56;100.00
29379;BME280;16362;47.202;15.258;2022-09-09T03:29:14;96110.66;;;11.58;100.00
29379;BME280;16362;47.202;15.258;2022-09-09T03:31:41;96109.78;;;11.58;100.00
29379;BME280;16362;47.202;15.258;2022-09-09T03:34:09;96108.59;;;11.60;100.00
29379;BME280;16362;47.202;15.258;2022-09-09T03:36:36;96116.44;;;11.62;100.00
29379;BME280;16362;47.202;15.258;2022-09-09T03:39:03;96121.97;;;11.60;100.00
29379;BME280;16362;47.202;15.258;2022-09-09T03:41:30;96120.13;;;11.61;100.00
29379;BME280;16362;47.202;15.258;2022-09-09T03:43:57;96114.41;;;11.64;100.00
29379;BME280;16362;47.202;15.258;2022-09-09T03:46:25;96113.22;;;11.67;100.00
29379;BME280;16362;47.202;15.258;2022-09-09T03:48:53;96109.53;;;11.68;100.00
29379;BME280;16362;47.202;15.258;2022-09-09T03:51:19;96112.56;;;11.65;100.00
29379;BME280;16362;47.202;15.258;2022-09-09T03:53:48;96116.91;;;11.66;100.00
29379;BME280;16362;47.202;15.258;2022-09-09T03:56:14;96121.06;;;11.68;100.00
29379;BME280;16362;47.202;15.258;2022-09-09T03:58:41;96123.72;;;11.68;100.00
29379;BME280;16362;47.202;15.258;2022-09-09T04:01:10;96124.72;;;11.67;100.00
29379;BME280;16362;47.202;15.258;2022-09-09T04:03:40;96119.47;;;11.74;100.00
29379;BME280;16362;47.202;15.258;2022-09-09T04:06:09;96125.47;;;11.76;100.00
29379;BME280;16362;47.202;15.258;2022-09-09T04:08:37;96118.00;;;11.71;100.00
29379;BME280;16362;47.202;15.258;2022-09-09T04:11:05;96122.81;;;11.76;100.00
29379;BME280;16362;47.202;15.258;2022-09-09T04:13:36;96132.13;;;11.80;100.00
29379;BME280;16362;47.202;15.258;2022-09-09T04:16:07;96138.09;;;11.82;100.00
29379;BME280;16362;47.202;15.258;2022-09-09T04:18:34;96130.53;;;11.86;100.00
29379;BME280;16362;47.202;15.258;2022-09-09T04:21:01;96118.66;;;11.88;100.00
29379;BME280;16362;47.202;15.258;2022-09-09T04:23:30;96116.97;;;11.87;100.00
29379;BME280;16362;47.202;15.258;2022-09-09T04:25:58;96114.31;;;11.87;100.00
29379;BME280;16362;47.202;15.258;2022-09-09T04:28:27;96111.16;;;11.84;100.00
29379;BME280;16362;47.202;15.258;2022-09-09T04:30:55;96109.34;;;11.84;100.00
29379;BME280;16362;47.202;15.258;2022-09-09T04:33:24;96104.00;;;11.84;100.00
29379;BME280;16362;47.202;15.258;2022-09-09T04:35:53;96104.81;;;11.85;100.00
29379;BME280;16362;47.202;15.258;2022-09-09T04:38:20;96109.53;;;11.83;100.00
29379;BME280;16362;47.202;15.258;2022-09-09T04:40:50;96106.00;;;11.82;100.00
29379;BME280;16362;47.202;15.258;2022-09-09T04:43:18;96109.69;;;11.81;100.00
29379;BME280;16362;47.202;15.258;2022-09-09T04:45:49;96109.69;;;11.81;100.00
29379;BME280;16362;47.202;15.258;2022-09-09T04:48:18;96114.69;;;11.84;100.00
29379;BME280;16362;47.202;15.258;2022-09-09T04:51:03;96114.31;;;11.87;100.00
29379;BME280;16362;47.202;15.258;2022-09-09T04:53:31;96113.91;;;11.90;100.00
29379;BME280;16362;47.202;15.258;2022-09-09T04:58:33;96112.66;;;12.01;100.00
29379;BME280;16362;47.202;15.258;2022-09-09T05:01:06;96115.78;;;12.05;100.00
29379;BME280;16362;47.202;15.258;2022-09-09T05:03:34;96109.25;;;12.07;100.00
29379;BME280;16362;47.202;15.258;2022-09-09T05:06:08;96107.66;;;12.13;100.00
29379;BME280;16362;47.202;15.258;2022-09-09T05:08:37;96117.97;;;12.16;100.00
29379;BME280;16362;47.202;15.258;2022-09-09T05:11:15;96101.91;;;12.16;100.00
29379;BME280;16362;47.202;15.258;2022-09-09T05:13:43;96104.41;;;12.18;100.00
29379;BME280;16362;47.202;15.258;2022-09-09T05:16:10;96102.84;;;12.23;100.00
29379;BME280;16362;47.202;15.258;2022-09-09T05:18:38;96102.44;;;12.26;100.00
29379;BME280;16362;47.202;15.258;2022-09-09T05:21:06;96107.41;;;12.29;100.00
29379;BME280;16362;47.202;15.258;2022-09-09T05:23:34;96103.72;;;12.30;100.00
29379;BME280;16362;47.202;15.258;2022-09-09T05:26:01;96110.34;;;12.35;100.00
29379;BME280;16362;47.202;15.258;2022-09-09T05:28:28;96102.59;;;12.40;100.00
29379;BME280;16362;47.202;15.258;2022-09-09T05:30:56;96103.22;;;12.42;100.00
29379;BME280;16362;47.202;15.258;2022-09-09T05:33:24;96103.88;;;12.44;100.00
29379;BME280;16362;47.202;15.258;2022-09-09T05:36:00;96100.63;;;12.49;100.00
29379;BME280;16362;47.202;15.258;2022-09-09T05:38:28;96101.72;;;12.54;100.00
29379;BME280;16362;47.202;15.258;2022-09-09T05:40:55;96095.72;;;12.52;100.00
29379;BME280;16362;47.202;15.258;2022-09-09T05:43:26;96096.53;;;12.53;100.00
29379;BME280;16362;47.202;15.258;2022-09-09T05:46:43;96107.50;;;12.58;100.00
29379;BME280;16362;47.202;15.258;2022-09-09T05:48:52;96125.50;;;12.64;100.00
29379;BME280;16362;47.202;15.258;2022-09-09T05:51:24;96116.88;;;12.90;100.00
29379;BME280;16362;47.202;15.258;2022-09-09T05:53:51;96130.72;;;12.94;100.00
29379;BME280;16362;47.202;15.258;2022-09-09T05:56:23;96128.66;;;12.96;100.00
29379;BME280;16362;47.202;15.258;2022-09-09T05:58:54;96128.72;;;13.03;100.00
29379;BME280;16362;47.202;15.258;2022-09-09T06:03:50;96119.13;;;13.15;100.00
29379;BME280;16362;47.202;15.258;2022-09-09T06:06:19;96119.56;;;13.19;100.00
29379;BME280;16362;47.202;15.258;2022-09-09T06:08:51;96112.19;;;13.21;100.00
29379;BME280;16362;47.202;15.258;2022-09-09T06:11:24;96119.00;;;13.23;100.00
29379;BME280;16362;47.202;15.258;2022-09-09T06:13:51;96118.59;;;13.26;100.00
29379;BME280;16362;47.202;15.258;2022-09-09T06:16:25;96120.06;;;13.29;100.00
29379;BME280;16362;47.202;15.258;2022-09-09T06:18:53;96113.63;;;13.45;100.00
29379;BME280;16362;47.202;15.258;2022-09-09T06:21:23;96111.44;;;13.62;100.00
29379;BME280;16362;47.202;15.258;2022-09-09T06:23:50;96108.88;;;13.82;100.00
29379;BME280;16362;47.202;15.258;2022-09-09T06:26:33;96110.00;;;14.01;100.00
29379;BME280;16362;47.202;15.258;2022-09-09T06:29:01;96108.81;;;14.17;100.00
29379;BME280;16362;47.202;15.258;2022-09-09T06:31:32;96111.53;;;14.24;100.00
29379;BME280;16362;47.202;15.258;2022-09-09T06:34:01;96109.72;;;14.44;100.00
29379;BME280;16362;47.202;15.258;2022-09-09T06:36:34;96105.19;;;14.52;100.00
29379;BME280;16362;47.202;15.258;2022-09-09T06:39:02;96109.53;;;14.59;100.00
29379;BME280;16362;47.202;15.258;2022-09-09T06:41:30;96104.00;;;14.68;100.00
29379;BME280;16362;47.202;15.258;2022-09-09T06:43:57;96110.84;;;14.70;100.00
29379;BME280;16362;47.202;15.258;2022-09-09T06:46:29;96106.13;;;14.79;100.00
29379;BME280;16362;47.202;15.258;2022-09-09T06:48:58;96104.84;;;14.81;100.00
29379;BME280;16362;47.202;15.258;2022-09-09T06:51:30;96109.63;;;14.86;100.00
29379;BME280;16362;47.202;15.258;2022-09-09T06:53:59;96104.03;;;14.88;100.00
29379;BME280;16362;47.202;15.258;2022-09-09T06:56:29;96099.69;;;14.93;100.00
29379;BME280;16362;47.202;15.258;2022-09-09T06:59:00;96104.25;;;14.99;100.00
29379;BME280;16362;47.202;15.258;2022-09-09T07:01:30;96101.59;;;15.13;100.00
29379;BME280;16362;47.202;15.258;2022-09-09T07:03:58;96097.00;;;15.20;100.00
29379;BME280;16362;47.202;15.258;2022-09-09T07:06:30;96093.31;;;15.21;100.00
29379;BME280;16362;47.202;15.258;2022-09-09T07:08:59;96087.28;;;15.32;100.00
29379;BME280;16362;47.202;15.258;2022-09-09T07:11:32;96082.53;;;15.35;100.00
29379;BME280;16362;47.202;15.258;2022-09-09T07:14:00;96086.84;;;15.42;100.00
29379;BME280;16362;47.202;15.258;2022-09-09T07:16:27;96092.63;;;15.53;100.00
29379;BME280;16362;47.202;15.258;2022-09-09T07:18:55;96096.31;;;15.65;100.00
29379;BME280;16362;47.202;15.258;2022-09-09T07:21:29;96095.47;;;15.78;100.00
29379;BME280;16362;47.202;15.258;2022-09-09T07:23:56;96098.56;;;15.75;100.00
29379;BME280;16362;47.202;15.258;2022-09-09T07:26:25;96096.50;;;15.77;100.00
29379;BME280;16362;47.202;15.258;2022-09-09T07:28:52;96097.97;;;15.79;100.00
29379;BME280;16362;47.202;15.258;2022-09-09T07:33:51;96098.19;;;15.85;100.00
29379;BME280;16362;47.202;15.258;2022-09-09T07:36:24;96105.59;;;15.89;100.00
29379;BME280;16362;47.202;15.258;2022-09-09T07:39:01;96101.44;;;15.93;100.00
29379;BME280;16362;47.202;15.258;2022-09-09T07:41:33;96109.53;;;15.93;100.00
29379;BME280;16362;47.202;15.258;2022-09-09T07:44:06;96101.91;;;15.83;100.00
29379;BME280;16362;47.202;15.258;2022-09-09T07:46:34;96094.25;;;15.87;100.00
29379;BME280;16362;47.202;15.258;2022-09-09T07:49:02;96103.94;;;15.88;100.00
29379;BME280;16362;47.202;15.258;2022-09-09T07:51:32;96102.91;;;15.89;100.00
29379;BME280;16362;47.202;15.258;2022-09-09T07:54:05;96104.34;;;15.92;100.00
29379;BME280;16362;47.202;15.258;2022-09-09T07:56:33;96102.91;;;15.96;100.00
29379;BME280;16362;47.202;15.258;2022-09-09T07:58:59;96104.78;;;15.95;100.00
29379;BME280;16362;47.202;15.258;2022-09-09T08:01:30;96114.44;;;16.03;100.00
29379;BME280;16362;47.202;15.258;2022-09-09T08:06:26;96114.66;;;16.08;100.00
29379;BME280;16362;47.202;15.258;2022-09-09T08:08:54;96115.25;;;16.17;100.00
29379;BME280;16362;47.202;15.258;2022-09-09T08:11:23;96113.78;;;16.21;100.00
29379;BME280;16362;47.202;15.258;2022-09-09T08:13:51;96118.09;;;16.22;100.00
29379;BME280;16362;47.202;15.258;2022-09-09T08:16:26;96110.22;;;16.27;100.00
29379;BME280;16362;47.202;15.258;2022-09-09T08:18:53;96115.19;;;16.30;100.00
29379;BME280;16362;47.202;15.258;2022-09-09T08:21:24;96119.28;;;16.33;100.00
29379;BME280;16362;47.202;15.258;2022-09-09T08:23:52;96120.53;;;16.37;100.00
29379;BME280;16362;47.202;15.258;2022-09-09T08:26:30;96126.50;;;16.46;100.00
29379;BME280;16362;47.202;15.258;2022-09-09T08:28:59;96128.53;;;16.50;100.00
29379;BME280;16362;47.202;15.258;2022-09-09T08:33:55;96120.50;;;16.44;100.00
29379;BME280;16362;47.202;15.258;2022-09-09T08:36:24;96125.84;;;16.50;100.00
29379;BME280;16362;47.202;15.258;2022-09-09T08:38:55;96127.69;;;16.57;100.00
29379;BME280;16362;47.202;15.258;2022-09-09T08:44:29;96127.44;;;16.65;100.00
29379;BME280;16362;47.202;15.258;2022-09-09T08:50:01;96136.22;;;16.54;100.00
29379;BME280;16362;47.202;15.258;2022-09-09T08:52:39;96126.25;;;16.54;100.00
29379;BME280;16362;47.202;15.258;2022-09-09T08:57:53;96135.09;;;16.61;100.00
29379;BME280;16362;47.202;15.258;2022-09-09T09:00:21;96137.50;;;16.44;100.00
29379;BME280;16362;47.202;15.258;2022-09-09T09:03:14;96134.50;;;16.14;100.00
29379;BME280;16362;47.202;15.258;2022-09-09T09:06:01;96134.53;;;16.07;100.00
29379;BME280;16362;47.202;15.258;2022-09-09T09:08:42;96134.34;;;16.02;100.00
29379;BME280;16362;47.202;15.258;2022-09-09T09:11:11;96137.47;;;15.92;100.00
29379;BME280;16362;47.202;15.258;2022-09-09T09:18:59;96141.63;;;15.68;100.00
29379;BME280;16362;47.202;15.258;2022-09-09T09:24:42;96147.00;;;15.68;100.00
29379;BME280;16362;47.202;15.258;2022-09-09T09:27:15;96148.06;;;15.74;100.00
29379;BME280;16362;47.202;15.258;2022-09-09T09:29:44;96143.91;;;15.78;100.00
29379;BME280;16362;47.202;15.258;2022-09-09T09:32:33;96145.38;;;15.87;100.00
29379;BME280;16362;47.202;15.258;2022-09-09T09:35:01;96149.88;;;15.93;100.00
29379;BME280;16362;47.202;15.258;2022-09-09T09:37:34;96135.38;;;16.01;100.00
29379;BME280;16362;47.202;15.258;2022-09-09T09:40:24;96138.25;;;16.13;100.00
29379;BME280;16362;47.202;15.258;2022-09-09T09:42:57;96144.03;;;16.16;100.00
29379;BME280;16362;47.202;15.258;2022-09-09T09:45:40;96137.38;;;16.19;100.00
29379;BME280;16362;47.202;15.258;2022-09-09T09:48:21;96129.94;;;16.21;100.00
29379;BME280;16362;47.202;15.258;2022-09-09T09:53:28;96127.22;;;16.28;100.00
29379;BME280;16362;47.202;15.258;2022-09-09T09:56:01;96128.22;;;16.33;100.00
29379;BME280;16362;47.202;15.258;2022-09-09T09:58:31;96118.91;;;16.36;100.00
29379;BME280;16362;47.202;15.258;2022-09-09T10:01:00;96115.09;;;16.44;100.00
29379;BME280;16362;47.202;15.258;2022-09-09T10:03:29;96118.56;;;16.58;100.00
29379;BME280;16362;47.202;15.258;2022-09-09T10:05:57;96120.53;;;16.76;100.00
29379;BME280;16362;47.202;15.258;2022-09-09T10:08:25;96118.00;;;16.81;100.00
29379;BME280;16362;47.202;15.258;2022-09-09T10:11:17;96117.34;;;16.92;100.00
29379;BME280;16362;47.202;15.258;2022-09-09T10:19:32;96114.22;;;17.46;100.00
29379;BME280;16362;47.202;15.258;2022-09-09T10:22:27;96112.44;;;17.58;100.00
29379;BME280;16362;47.202;15.258;2022-09-09T10:25:20;96114.78;;;17.73;100.00
29379;BME280;16362;47.202;15.258;2022-09-09T10:34:02;96103.25;;;18.22;100.00
29379;BME280;16362;47.202;15.258;2022-09-09T10:36:32;96104.59;;;18.31;100.00
29379;BME280;16362;47.202;15.258;2022-09-09T10:39:19;96109.63;;;18.58;100.00
29379;BME280;16362;47.202;15.258;2022-09-09T10:42:04;96098.66;;;19.01;100.00
29379;BME280;16362;47.202;15.258;2022-09-09T10:50:37;96089.50;;;19.26;96.64
29379;BME280;16362;47.202;15.258;2022-09-09T10:54:01;96098.66;;;19.25;95.58
29379;BME280;16362;47.202;15.258;2022-09-09T10:56:23;96095.38;;;19.23;97.48
29379;BME280;16362;47.202;15.258;2022-09-09T10:58:55;96094.69;;;19.16;96.35
29379;BME280;16362;47.202;15.258;2022-09-09T11:01:25;96087.75;;;19.20;94.59
29379;BME280;16362;47.202;15.258;2022-09-09T11:04:04;96092.91;;;19.22;96.38
29379;BME280;16362;47.202;15.258;2022-09-09T11:06:39;96094.22;;;19.19;100.00
29379;BME280;16362;47.202;15.258;2022-09-09T11:09:15;96082.66;;;19.12;100.00
29379;BME280;16362;47.202;15.258;2022-09-09T11:11:52;96092.28;;;19.08;100.00
29379;BME280;16362;47.202;15.258;2022-09-09T11:14:36;96098.50;;;18.96;100.00
29379;BME280;16362;47.202;15.258;2022-09-09T11:17:24;96090.88;;;18.93;100.00
29379;BME280;16362;47.202;15.258;2022-09-09T11:19:53;96087.41;;;18.86;100.00
29379;BME280;16362;47.202;15.258;2022-09-09T11:22:33;96082.09;;;18.79;100.00
29379;BME280;16362;47.202;15.258;2022-09-09T11:25:14;96082.66;;;18.69;100.00
29379;BME280;16362;47.202;15.258;2022-09-09T11:28:02;96080.28;;;18.61;100.00
29379;BME280;16362;47.202;15.258;2022-09-09T11:36:33;96070.44;;;18.37;100.00
29379;BME280;16362;47.202;15.258;2022-09-09T11:41:46;96059.25;;;18.33;100.00
29379;BME280;16362;47.202;15.258;2022-09-09T11:44:23;96059.59;;;18.25;100.00
29379;BME280;16362;47.202;15.258;2022-09-09T11:46:53;96056.38;;;18.16;100.00
29379;BME280;16362;47.202;15.258;2022-09-09T11:49:40;96047.44;;;18.15;100.00
29379;BME280;16362;47.202;15.258;2022-09-09T11:52:21;96038.91;;;18.18;100.00
29379;BME280;16362;47.202;15.258;2022-09-09T11:54:49;96037.16;;;18.24;100.00
29379;BME280;16362;47.202;15.258;2022-09-09T11:57:30;96036.22;;;18.30;100.00
29379;BME280;16362;47.202;15.258;2022-09-09T11:59:57;96029.56;;;18.33;100.00
29379;BME280;16362;47.202;15.258;2022-09-09T12:02:28;96033.22;;;18.39;100.00
29379;BME280;16362;47.202;15.258;2022-09-09T12:05:06;96032.44;;;18.50;100.00
29379;BME280;16362;47.202;15.258;2022-09-09T12:10:20;96028.59;;;18.69;100.00
29379;BME280;16362;47.202;15.258;2022-09-09T12:12:48;96022.84;;;18.78;100.00
29379;BME280;16362;47.202;15.258;2022-09-09T12:17:44;96018.16;;;18.73;100.00
29379;BME280;16362;47.202;15.258;2022-09-09T12:31:14;96000.53;;;18.71;100.00
29379;BME280;16362;47.202;15.258;2022-09-09T12:33:45;95996.19;;;18.81;100.00
29379;BME280;16362;47.202;15.258;2022-09-09T12:36:19;95986.97;;;18.89;100.00
29379;BME280;16362;47.202;15.258;2022-09-09T12:38:48;95981.53;;;18.89;100.00
29379;BME280;16362;47.202;15.258;2022-09-09T12:41:20;95982.34;;;18.90;100.00
29379;BME280;16362;47.202;15.258;2022-09-09T12:43:47;95987.66;;;18.96;100.00
29379;BME280;16362;47.202;15.258;2022-09-09T12:46:40;95983.78;;;19.04;100.00
29379;BME280;16362;47.202;15.258;2022-09-09T12:52:15;95985.44;;;19.05;100.00
29379;BME280;16362;47.202;15.258;2022-09-09T12:54:45;95990.47;;;19.01;100.00
29379;BME280;16362;47.202;15.258;2022-09-09T12:57:14;95989.78;;;18.94;100.00
29379;BME280;16362;47.202;15.258;2022-09-09T12:59:43;95989.19;;;18.92;97.35
29379;BME280;16362;47.202;15.258;2022-09-09T13:02:22;95990.53;;;18.71;99.76
29379;BME280;16362;47.202;15.258;2022-09-09T13:04:50;95991.56;;;18.58;100.00
29379;BME280;16362;47.202;15.258;2022-09-09T13:07:18;95980.06;;;18.51;100.00
29379;BME280;16362;47.202;15.258;2022-09-09T13:09:48;95973.91;;;18.44;100.00
29379;BME280;16362;47.202;15.258;2022-09-09T13:12:21;95974.25;;;18.35;100.00
29379;BME280;16362;47.202;15.258;2022-09-09T13:14:51;95972.59;;;18.23;100.00
29379;BME280;16362;47.202;15.258;2022-09-09T13:17:28;95979.94;;;18.15;100.00
29379;BME280;16362;47.202;15.258;2022-09-09T13:19:56;95973.59;;;18.10;100.00
29379;BME280;16362;47.202;15.258;2022-09-09T13:22:33;95973.81;;;18.08;100.00
29379;BME280;16362;47.202;15.258;2022-09-09T13:27:40;95964.28;;;18.06;100.00
29379;BME280;16362;47.202;15.258;2022-09-09T13:30:25;95959.13;;;18.04;100.00
29379;BME280;16362;47.202;15.258;2022-09-09T13:38:18;95955.00;;;18.01;100.00
29379;BME280;16362;47.202;15.258;2022-09-09T13:41:02;95955.72;;;17.97;100.00
29379;BME280;16362;47.202;15.258;2022-09-09T13:43:35;95952.47;;;17.88;100.00
29379;BME280;16362;47.202;15.258;2022-09-09T13:46:05;95951.25;;;17.84;100.00
29379;BME280;16362;47.202;15.258;2022-09-09T13:48:59;95944.44;;;17.81;100.00
29379;BME280;16362;47.202;15.258;2022-09-09T13:51:34;95955.25;;;17.81;100.00
29379;BME280;16362;47.202;15.258;2022-09-09T13:54:08;95946.19;;;17.76;100.00
29379;BME280;16362;47.202;15.258;2022-09-09T13:56:37;95942.88;;;17.74;100.00
29379;BME280;16362;47.202;15.258;2022-09-09T13:59:08;95937.94;;;17.71;100.00
29379;BME280;16362;47.202;15.258;2022-09-09T14:01:35;95944.63;;;17.68;100.00
29379;BME280;16362;47.202;15.258;2022-09-09T14:04:04;95947.53;;;17.66;100.00
29379;BME280;16362;47.202;15.258;2022-09-09T14:06:36;95946.97;;;17.64;100.00
29379;BME280;16362;47.202;15.258;2022-09-09T14:09:09;95939.06;;;17.63;100.00
29379;BME280;16362;47.202;15.258;2022-09-09T14:11:36;95939.75;;;17.58;100.00
29379;BME280;16362;47.202;15.258;2022-09-09T14:14:03;95940.00;;;17.57;100.00
29379;BME280;16362;47.202;15.258;2022-09-09T14:16:30;95943.28;;;17.59;100.00
29379;BME280;16362;47.202;15.258;2022-09-09T14:18:56;95936.16;;;17.64;100.00
29379;BME280;16362;47.202;15.258;2022-09-09T14:21:23;95937.94;;;17.71;100.00
29379;BME280;16362;47.202;15.258;2022-09-09T14:23:50;95933.38;;;17.71;100.00
29379;BME280;16362;47.202;15.258;2022-09-09T14:26:20;95938.41;;;17.67;100.00
29379;BME280;16362;47.202;15.258;2022-09-09T14:28:48;95940.88;;;17.69;100.00
29379;BME280;16362;47.202;15.258;2022-09-09T14:31:24;95938.41;;;17.67;100.00
29379;BME280;16362;47.202;15.258;2022-09-09T14:33:51;95938.88;;;17.64;100.00
29379;BME280;16362;47.202;15.258;2022-09-09T14:36:19;95937.69;;;17.60;100.00
29379;BME280;16362;47.202;15.258;2022-09-09T14:38:46;95944.19;;;17.53;100.00
29379;BME280;16362;47.202;15.258;2022-09-09T14:41:14;95949.44;;;17.47;100.00
29379;BME280;16362;47.202;15.258;2022-09-09T14:43:45;95951.53;;;17.45;100.00
29379;BME280;16362;47.202;15.258;2022-09-09T14:46:14;95963.81;;;17.41;100.00
29379;BME280;16362;47.202;15.258;2022-09-09T14:48:42;95962.50;;;17.32;100.00
29379;BME280;16362;47.202;15.258;2022-09-09T14:51:28;95971.00;;;17.29;100.00
29379;BME280;16362;47.202;15.258;2022-09-09T14:53:57;95975.03;;;17.20;100.00
29379;BME280;16362;47.202;15.258;2022-09-09T14:56:26;95966.59;;;17.16;100.00
29379;BME280;16362;47.202;15.258;2022-09-09T14:58:55;95967.63;;;17.15;100.00